Wetterdaten: Woche 02.10.23 - 08.10.23 (KW40)
Datum Zeit Temp. I. Temp. A. Feuchte I. Feuchte A. Luftdruck Regen Wind Richtung Sonnenschein Solar Taupunkt Windchill Windböen
02.10.2023 00:00 22,5 °C 11,8 °C 60 % 90 % 1022,7 hPa 0,0 l/m² 1,6 km/h (1 Bft) W-SW 0,00 h 0 W/m² 10,2 °C 11,8 °C 2,8 km/h (1 Bft)
02.10.2023 01:00 22,4 °C 11,4 °C 60 % 92 % 1022,5 hPa 0,0 l/m² 1,6 km/h (1 Bft) O-NO 0,00 h 0 W/m² 10,1 °C 11,4 °C 3,1 km/h (1 Bft)
02.10.2023 02:00 22,3 °C 11,2 °C 60 % 92 % 1022,5 hPa 0,0 l/m² 0,5 km/h (0 Bft) O-NO 0,00 h 0 W/m² 9,9 °C 11,2 °C 1,3 km/h (1 Bft)
02.10.2023 03:00 22,3 °C 11,6 °C 60 % 93 % 1022,3 hPa 0,0 l/m² 1,4 km/h (1 Bft) O-NO 0,00 h 0 W/m² 10,4 °C 11,6 °C 2,9 km/h (1 Bft)
02.10.2023 04:00 22,3 °C 12,5 °C 60 % 92 % 1022,3 hPa 0,0 l/m² 0,8 km/h (0 Bft) O-NO 0,00 h 0 W/m² 11,3 °C 12,5 °C 2,2 km/h (1 Bft)
02.10.2023 05:00 22,1 °C 13,0 °C 60 % 91 % 1022,0 hPa 0,0 l/m² 1,1 km/h (1 Bft) O-NO 0,00 h 0 W/m² 11,6 °C 13,0 °C 2,4 km/h (1 Bft)
02.10.2023 06:00 22,1 °C 13,1 °C 60 % 90 % 1021,8 hPa 0,0 l/m² 1,0 km/h (0 Bft) O-NO 0,00 h 0 W/m² 11,5 °C 13,1 °C 2,2 km/h (1 Bft)
02.10.2023 07:00 22,1 °C 12,8 °C 60 % 90 % 1021,7 hPa 0,0 l/m² 1,0 km/h (0 Bft) O-NO 0,00 h 21 W/m² 11,2 °C 12,8 °C 2,0 km/h (1 Bft)
02.10.2023 08:00 22,3 °C 14,4 °C 61 % 87 % 1022,0 hPa 0,0 l/m² 0,7 km/h (0 Bft) O-NO 0,97 h 129 W/m² 12,3 °C 14,4 °C 1,9 km/h (1 Bft)
02.10.2023 09:00 22,6 °C 17,1 °C 60 % 80 % 1022,1 hPa 0,0 l/m² 7,0 km/h (2 Bft) S-SW 1,00 h 312 W/m² 13,6 °C 16,3 °C 10,2 km/h (2 Bft)
02.10.2023 10:00 22,7 °C 18,8 °C 57 % 76 % 1022,1 hPa 0,0 l/m² 11,2 km/h (2 Bft) S-SW 1,00 h 333 W/m² 14,5 °C 16,9 °C 14,3 km/h (3 Bft)
02.10.2023 11:00 22,7 °C 20,5 °C 57 % 71 % 1021,8 hPa 0,0 l/m² 12,8 km/h (3 Bft) SW 1,00 h 469 W/m² 15,0 °C 18,4 °C 16,7 km/h (3 Bft)
02.10.2023 12:00 22,9 °C 22,4 °C 56 % 67 % 1021,2 hPa 0,0 l/m² 9,5 km/h (2 Bft) S-SW 1,00 h 510 W/m² 16,0 °C 21,4 °C 13,6 km/h (3 Bft)
02.10.2023 13:00 23,1 °C 24,4 °C 57 % 63 % 1020,6 hPa 0,0 l/m² 8,0 km/h (2 Bft) SW 1,00 h 576 W/m² 16,8 °C 23,9 °C 11,5 km/h (2 Bft)
02.10.2023 14:00 23,1 °C 25,3 °C 58 % 61 % 1020,1 hPa 0,0 l/m² 7,4 km/h (2 Bft) SW 1,00 h 519 W/m² 17,1 °C 24,9 °C 11,4 km/h (2 Bft)
02.10.2023 15:00 23,1 °C 25,5 °C 58 % 60 % 1019,5 hPa 0,0 l/m² 9,5 km/h (2 Bft) SW 1,00 h 407 W/m² 17,1 °C 24,8 °C 13,7 km/h (3 Bft)
02.10.2023 16:00 23,1 °C 25,6 °C 58 % 59 % 1019,1 hPa 0,0 l/m² 11,4 km/h (2 Bft) SW 1,00 h 290 W/m² 17,0 °C 24,6 °C 16,0 km/h (3 Bft)
02.10.2023 17:00 22,9 °C 24,6 °C 58 % 62 % 1018,8 hPa 0,0 l/m² 4,7 km/h (1 Bft) SW 1,00 h 104 W/m² 16,9 °C 24,5 °C 6,8 km/h (2 Bft)
02.10.2023 18:00 22,8 °C 22,2 °C 59 % 71 % 1018,6 hPa 0,0 l/m² 0,0 km/h (0 Bft) SW 0,00 h 23 W/m² 16,7 °C 22,2 °C 0,0 km/h (0 Bft)
02.10.2023 19:00 22,9 °C 18,4 °C 60 % 82 % 1018,5 hPa 0,0 l/m² 0,1 km/h (0 Bft) N 0,00 h 0 W/m² 15,3 °C 18,4 °C 0,4 km/h (0 Bft)
02.10.2023 20:00 23,1 °C 16,3 °C 61 % 87 % 1018,3 hPa 0,0 l/m² 0,0 km/h (0 Bft) N 0,00 h 0 W/m² 14,1 °C 16,3 °C 0,1 km/h (0 Bft)
02.10.2023 21:00 23,1 °C 15,2 °C 61 % 90 % 1018,0 hPa 0,0 l/m² 0,7 km/h (0 Bft) NO 0,00 h 0 W/m² 13,5 °C 15,2 °C 1,3 km/h (1 Bft)
02.10.2023 22:00 23,1 °C 14,3 °C 61 % 90 % 1017,7 hPa 0,0 l/m² 0,4 km/h (0 Bft) NO 0,00 h 0 W/m² 12,7 °C 14,3 °C 0,8 km/h (0 Bft)
02.10.2023 23:00 23,0 °C 13,3 °C 61 % 92 % 1017,2 hPa 0,0 l/m² 0,5 km/h (0 Bft) NO 0,00 h 0 W/m² 12,1 °C 13,3 °C 0,8 km/h (0 Bft)
03.10.2023 00:00 22,8 °C 12,7 °C 61 % 92 % 1016,7 hPa 0,0 l/m² 0,5 km/h (0 Bft) NO 0,00 h 0 W/m² 11,5 °C 12,7 °C 1,3 km/h (1 Bft)
03.10.2023 01:00 22,7 °C 12,1 °C 61 % 93 % 1016,2 hPa 0,0 l/m² 0,0 km/h (0 Bft) NO 0,00 h 0 W/m² 11,0 °C 12,1 °C 0,0 km/h (0 Bft)
03.10.2023 02:00 22,6 °C 11,7 °C 60 % 94 % 1015,5 hPa 0,0 l/m² 1,6 km/h (1 Bft) O-NO 0,00 h 0 W/m² 10,8 °C 11,7 °C 3,1 km/h (1 Bft)
03.10.2023 03:00 22,6 °C 11,2 °C 60 % 94 % 1014,5 hPa 0,0 l/m² 2,6 km/h (1 Bft) O-NO 0,00 h 0 W/m² 10,3 °C 11,2 °C 4,6 km/h (1 Bft)
03.10.2023 04:00 22,4 °C 10,8 °C 60 % 95 % 1013,5 hPa 0,0 l/m² 2,0 km/h (1 Bft) O-NO 0,00 h 0 W/m² 9,9 °C 10,8 °C 3,3 km/h (1 Bft)
03.10.2023 05:00 22,4 °C 10,6 °C 60 % 95 % 1012,8 hPa 0,0 l/m² 0,2 km/h (0 Bft) O-NO 0,00 h 0 W/m² 9,8 °C 10,6 °C 0,5 km/h (0 Bft)
03.10.2023 06:00 22,3 °C 11,0 °C 60 % 95 % 1012,1 hPa 0,0 l/m² 1,0 km/h (0 Bft) O-NO 0,00 h 0 W/m² 10,2 °C 11,0 °C 2,3 km/h (1 Bft)
03.10.2023 07:00 22,3 °C 12,4 °C 60 % 95 % 1011,6 hPa 0,0 l/m² 1,5 km/h (1 Bft) O-NO 0,00 h 15 W/m² 11,6 °C 12,4 °C 3,0 km/h (1 Bft)
03.10.2023 08:00 22,4 °C 15,1 °C 61 % 91 % 1011,3 hPa 0,0 l/m² 2,4 km/h (1 Bft) NO 0,00 h 39 W/m² 13,5 °C 15,1 °C 4,4 km/h (1 Bft)
03.10.2023 09:00 22,5 °C 16,5 °C 61 % 87 % 1011,0 hPa 0,0 l/m² 2,0 km/h (1 Bft) O-NO 0,67 h 58 W/m² 14,2 °C 16,5 °C 3,8 km/h (1 Bft)
03.10.2023 10:00 22,4 °C 17,2 °C 59 % 84 % 1010,7 hPa 0,0 l/m² 3,8 km/h (1 Bft) W-SW 1,00 h 104 W/m² 14,6 °C 17,1 °C 6,0 km/h (2 Bft)
03.10.2023 11:00 22,3 °C 20,7 °C 59 % 73 % 1010,3 hPa 0,0 l/m² 21,5 km/h (4 Bft) SW 1,00 h 155 W/m² 15,7 °C 17,0 °C 29,9 km/h (5 Bft)
03.10.2023 12:00 22,5 °C 21,9 °C 60 % 69 % 1010,5 hPa 0,0 l/m² 23,9 km/h (4 Bft) SW 1,00 h 139 W/m² 15,9 °C 18,1 °C 32,4 km/h (5 Bft)
03.10.2023 13:00 22,5 °C 22,5 °C 61 % 68 % 1011,0 hPa 0,0 l/m² 23,8 km/h (4 Bft) SW 1,00 h 160 W/m² 16,2 °C 19,0 °C 32,5 km/h (5 Bft)
03.10.2023 14:00 22,5 °C 22,5 °C 61 % 69 % 1011,4 hPa 0,0 l/m² 20,7 km/h (4 Bft) SW 1,00 h 233 W/m² 16,5 °C 19,4 °C 28,9 km/h (5 Bft)
03.10.2023 15:00 22,6 °C 22,4 °C 61 % 69 % 1011,5 hPa 0,0 l/m² 21,0 km/h (4 Bft) SW 1,00 h 178 W/m² 16,4 °C 19,2 °C 28,9 km/h (5 Bft)
03.10.2023 16:00 22,6 °C 21,9 °C 61 % 70 % 1011,4 hPa 0,0 l/m² 17,8 km/h (3 Bft) SW 0,40 h 60 W/m² 16,1 °C 19,1 °C 24,3 km/h (4 Bft)
03.10.2023 17:00 22,6 °C 18,6 °C 62 % 85 % 1012,4 hPa 6,6 l/m² 18,7 km/h (3 Bft) SW 0,00 h 12 W/m² 16,0 °C 14,8 °C 25,6 km/h (4 Bft)
03.10.2023 18:00 22,6 °C 16,9 °C 62 % 90 % 1013,6 hPa 0,8 l/m² 13,0 km/h (3 Bft) W-SW 0,00 h 0 W/m² 15,3 °C 14,2 °C 18,7 km/h (3 Bft)
03.10.2023 19:00 22,7 °C 15,6 °C 64 % 90 % 1015,3 hPa 1,4 l/m² 13,8 km/h (3 Bft) W 0,00 h 0 W/m² 13,9 °C 12,4 °C 22,3 km/h (4 Bft)
03.10.2023 20:00 22,7 °C 14,3 °C 63 % 89 % 1017,2 hPa 1,0 l/m² 18,8 km/h (3 Bft) W 0,00 h 0 W/m² 12,5 °C 9,4 °C 30,7 km/h (5 Bft)
03.10.2023 21:00 22,7 °C 13,5 °C 63 % 88 % 1019,3 hPa 0,0 l/m² 10,4 km/h (2 Bft) W-SW 0,00 h 0 W/m² 11,4 °C 11,3 °C 16,9 km/h (3 Bft)
03.10.2023 22:00 22,5 °C 12,2 °C 62 % 87 % 1021,3 hPa 0,0 l/m² 8,2 km/h (2 Bft) W-SW 0,00 h 0 W/m² 10,2 °C 11,0 °C 11,8 km/h (2 Bft)
03.10.2023 23:00 22,3 °C 11,9 °C 62 % 90 % 1022,3 hPa 0,0 l/m² 10,9 km/h (2 Bft) SW 0,00 h 0 W/m² 10,2 °C 9,2 °C 15,5 km/h (3 Bft)
04.10.2023 00:00 22,2 °C 11,8 °C 62 % 90 % 1023,2 hPa 0,0 l/m² 15,5 km/h (3 Bft) SW 0,00 h 0 W/m² 10,3 °C 7,3 °C 21,2 km/h (4 Bft)
04.10.2023 01:00 22,2 °C 11,9 °C 62 % 89 % 1023,3 hPa 0,0 l/m² 14,4 km/h (3 Bft) SW 0,00 h 0 W/m² 10,1 °C 7,7 °C 19,5 km/h (3 Bft)
04.10.2023 02:00 22,1 °C 11,5 °C 62 % 89 % 1023,4 hPa 0,0 l/m² 12,7 km/h (3 Bft) SW 0,00 h 0 W/m² 9,8 °C 8,1 °C 17,0 km/h (3 Bft)
04.10.2023 03:00 22,1 °C 11,2 °C 62 % 89 % 1023,7 hPa 0,0 l/m² 12,7 km/h (3 Bft) S-SW 0,00 h 0 W/m² 9,5 °C 7,6 °C 17,6 km/h (3 Bft)
04.10.2023 04:00 22,0 °C 10,8 °C 62 % 90 % 1023,8 hPa 0,0 l/m² 11,8 km/h (2 Bft) S-SW 0,00 h 0 W/m² 9,2 °C 7,6 °C 16,5 km/h (3 Bft)
04.10.2023 05:00 22,0 °C 10,7 °C 62 % 90 % 1024,1 hPa 0,0 l/m² 14,1 km/h (3 Bft) S-SW 0,00 h 0 W/m² 9,1 °C 6,4 °C 19,2 km/h (3 Bft)
04.10.2023 06:00 21,9 °C 10,8 °C 62 % 90 % 1024,2 hPa 0,0 l/m² 15,3 km/h (3 Bft) S-SW 0,00 h 0 W/m² 9,2 °C 6,0 °C 20,3 km/h (4 Bft)
04.10.2023 07:00 21,8 °C 10,8 °C 61 % 89 % 1024,4 hPa 0,0 l/m² 10,0 km/h (2 Bft) SW 0,00 h 20 W/m² 9,1 °C 8,6 °C 14,5 km/h (3 Bft)
04.10.2023 08:00 21,8 °C 11,6 °C 61 % 89 % 1024,9 hPa 0,0 l/m² 16,8 km/h (3 Bft) SW 0,78 h 56 W/m² 9,8 °C 6,4 °C 23,1 km/h (4 Bft)
04.10.2023 09:00 21,7 °C 12,4 °C 61 % 88 % 1025,6 hPa 0,0 l/m² 15,2 km/h (3 Bft) SW 0,98 h 140 W/m² 10,4 °C 8,1 °C 21,2 km/h (4 Bft)
04.10.2023 10:00 22,1 °C 13,9 °C 60 % 84 % 1026,0 hPa 0,0 l/m² 19,3 km/h (3 Bft) SW 1,02 h 322 W/m² 11,3 °C 8,5 °C 27,9 km/h (5 Bft)
04.10.2023 11:00 22,4 °C 14,9 °C 59 % 82 % 1026,2 hPa 0,0 l/m² 18,1 km/h (3 Bft) SW 1,00 h 435 W/m² 12,0 °C 10,2 °C 25,2 km/h (4 Bft)
04.10.2023 12:00 22,9 °C 16,8 °C 58 % 76 % 1026,1 hPa 0,0 l/m² 19,3 km/h (3 Bft) W-SW 0,98 h 589 W/m² 12,6 °C 12,2 °C 26,4 km/h (4 Bft)
04.10.2023 13:00 23,2 °C 17,3 °C 58 % 74 % 1026,2 hPa 0,0 l/m² 19,3 km/h (3 Bft) W-SW 1,02 h 568 W/m² 12,5 °C 12,9 °C 26,2 km/h (4 Bft)
04.10.2023 14:00 23,2 °C 17,1 °C 58 % 72 % 1025,9 hPa 0,0 l/m² 16,0 km/h (3 Bft) SW 1,00 h 392 W/m² 12,1 °C 13,6 °C 21,5 km/h (4 Bft)
04.10.2023 15:00 22,8 °C 17,1 °C 58 % 71 % 1025,5 hPa 0,0 l/m² 16,8 km/h (3 Bft) SW 1,00 h 264 W/m² 11,8 °C 13,3 °C 22,0 km/h (4 Bft)
04.10.2023 16:00 22,5 °C 16,3 °C 59 % 74 % 1025,3 hPa 0,0 l/m² 14,0 km/h (3 Bft) SW 1,00 h 136 W/m² 11,6 °C 13,1 °C 19,2 km/h (3 Bft)
04.10.2023 17:00 22,3 °C 15,4 °C 59 % 76 % 1025,2 hPa 0,0 l/m² 11,0 km/h (2 Bft) SW 0,47 h 48 W/m² 11,3 °C 13,3 °C 14,9 km/h (3 Bft)
04.10.2023 18:00 22,2 °C 14,5 °C 59 % 80 % 1025,2 hPa 0,0 l/m² 7,8 km/h (2 Bft) SW 0,00 h 15 W/m² 11,1 °C 13,7 °C 10,8 km/h (2 Bft)
04.10.2023 19:00 22,1 °C 13,4 °C 60 % 83 % 1025,1 hPa 0,0 l/m² 7,3 km/h (2 Bft) S-SW 0,00 h 0 W/m² 10,6 °C 12,8 °C 9,5 km/h (2 Bft)
04.10.2023 20:00 22,1 °C 13,0 °C 60 % 84 % 1025,2 hPa 0,0 l/m² 7,7 km/h (2 Bft) SW 0,00 h 0 W/m² 10,3 °C 12,2 °C 10,0 km/h (2 Bft)
04.10.2023 21:00 22,2 °C 12,4 °C 61 % 86 % 1025,0 hPa 0,0 l/m² 6,9 km/h (2 Bft) SW 0,00 h 0 W/m² 10,1 °C 11,9 °C 8,9 km/h (2 Bft)
04.10.2023 22:00 22,2 °C 11,9 °C 61 % 86 % 1024,9 hPa 0,0 l/m² 3,5 km/h (1 Bft) SW 0,00 h 0 W/m² 9,6 °C 11,9 °C 5,2 km/h (1 Bft)
04.10.2023 23:00 22,0 °C 10,5 °C 61 % 90 % 1024,5 hPa 0,0 l/m² 3,7 km/h (1 Bft) SW 0,00 h 0 W/m² 8,8 °C 10,1 °C 5,3 km/h (1 Bft)
05.10.2023 00:00 21,8 °C 11,1 °C 61 % 88 % 1024,0 hPa 0,0 l/m² 10,7 km/h (2 Bft) SW 0,00 h 0 W/m² 9,2 °C 8,5 °C 14,2 km/h (3 Bft)
05.10.2023 01:00 21,7 °C 10,7 °C 61 % 88 % 1023,6 hPa 0,0 l/m² 10,8 km/h (2 Bft) SW 0,00 h 0 W/m² 8,9 °C 8,0 °C 13,9 km/h (3 Bft)
05.10.2023 02:00 21,7 °C 10,9 °C 60 % 89 % 1023,5 hPa 0,0 l/m² 9,1 km/h (2 Bft) S-SW 0,00 h 0 W/m² 9,1 °C 9,1 °C 11,6 km/h (2 Bft)
05.10.2023 03:00 21,6 °C 11,0 °C 60 % 88 % 1023,1 hPa 0,0 l/m² 9,9 km/h (2 Bft) S-SW 0,00 h 0 W/m² 9,1 °C 8,9 °C 13,3 km/h (3 Bft)
05.10.2023 04:00 21,6 °C 11,3 °C 60 % 89 % 1022,8 hPa 0,0 l/m² 10,4 km/h (2 Bft) S-SW 0,00 h 0 W/m² 9,5 °C 8,9 °C 14,3 km/h (3 Bft)
05.10.2023 05:00 21,4 °C 11,9 °C 60 % 87 % 1022,5 hPa 0,0 l/m² 14,8 km/h (3 Bft) S-SW 0,00 h 0 W/m² 9,9 °C 7,6 °C 19,5 km/h (3 Bft)
05.10.2023 06:00 21,4 °C 12,0 °C 61 % 86 % 1022,3 hPa 0,0 l/m² 15,7 km/h (3 Bft) S-SW 0,00 h 0 W/m² 9,7 °C 7,3 °C 19,5 km/h (3 Bft)
05.10.2023 07:00 21,4 °C 11,8 °C 59 % 87 % 1021,9 hPa 0,0 l/m² 15,2 km/h (3 Bft) S-SW 0,00 h 23 W/m² 9,7 °C 7,3 °C 19,5 km/h (3 Bft)
05.10.2023 08:00 21,4 °C 12,3 °C 59 % 86 % 1021,9 hPa 0,0 l/m² 9,3 km/h (2 Bft) SW 0,83 h 88 W/m² 10,0 °C 10,5 °C 13,7 km/h (3 Bft)
05.10.2023 09:00 21,3 °C 12,9 °C 59 % 85 % 1022,4 hPa 0,0 l/m² 14,2 km/h (3 Bft) SW 1,00 h 83 W/m² 10,4 °C 9,0 °C 19,4 km/h (3 Bft)
05.10.2023 10:00 21,3 °C 14,0 °C 59 % 82 % 1022,6 hPa 0,0 l/m² 16,6 km/h (3 Bft) SW 1,00 h 224 W/m² 11,0 °C 9,6 °C 22,7 km/h (4 Bft)
05.10.2023 11:00 21,3 °C 15,6 °C 58 % 79 % 1023,0 hPa 0,0 l/m² 20,0 km/h (4 Bft) SW 1,00 h 397 W/m² 11,9 °C 10,6 °C 27,1 km/h (5 Bft)
05.10.2023 12:00 21,5 °C 16,9 °C 58 % 73 % 1023,0 hPa 0,0 l/m² 20,5 km/h (4 Bft) W-SW 1,00 h 497 W/m² 12,0 °C 12,1 °C 27,4 km/h (5 Bft)
05.10.2023 13:00 21,7 °C 17,6 °C 57 % 70 % 1022,8 hPa 0,0 l/m² 21,5 km/h (4 Bft) W-SW 1,00 h 494 W/m² 12,0 °C 12,9 °C 28,4 km/h (5 Bft)
05.10.2023 14:00 21,7 °C 17,6 °C 58 % 70 % 1022,8 hPa 0,0 l/m² 18,0 km/h (3 Bft) W-SW 1,00 h 334 W/m² 12,1 °C 13,6 °C 23,4 km/h (4 Bft)
05.10.2023 15:00 21,7 °C 17,4 °C 58 % 71 % 1023,0 hPa 0,0 l/m² 17,2 km/h (3 Bft) W-SW 1,00 h 212 W/m² 12,2 °C 13,6 °C 22,8 km/h (4 Bft)
05.10.2023 16:00 21,5 °C 17,1 °C 58 % 72 % 1023,1 hPa 0,0 l/m² 14,3 km/h (3 Bft) W-SW 0,92 h 137 W/m² 12,0 °C 14,0 °C 19,4 km/h (3 Bft)
05.10.2023 17:00 21,4 °C 16,5 °C 58 % 74 % 1023,2 hPa 0,0 l/m² 12,5 km/h (2 Bft) SW 0,05 h 28 W/m² 11,8 °C 13,9 °C 17,0 km/h (3 Bft)
05.10.2023 18:00 21,5 °C 15,9 °C 59 % 76 % 1023,5 hPa 0,0 l/m² 9,6 km/h (2 Bft) SW 0,00 h 8 W/m² 11,6 °C 14,3 °C 13,2 km/h (3 Bft)
05.10.2023 19:00 23,8 °C 15,6 °C 55 % 77 % 1024,1 hPa 0,0 l/m² 9,4 km/h (2 Bft) W-SW 0,00 h 0 W/m² 11,5 °C 14,1 °C 13,2 km/h (3 Bft)
05.10.2023 20:00 29,0 °C 15,0 °C 46 % 80 % 1024,8 hPa 0,0 l/m² 4,5 km/h (1 Bft) W-SW 0,00 h 0 W/m² 11,6 °C 15,0 °C 6,8 km/h (2 Bft)
05.10.2023 21:00 28,5 °C 14,4 °C 46 % 83 % 1025,1 hPa 0,0 l/m² 3,7 km/h (1 Bft) W-SW 0,00 h 0 W/m² 11,5 °C 14,4 °C 5,5 km/h (2 Bft)
05.10.2023 22:00 26,4 °C 13,9 °C 49 % 85 % 1025,1 hPa 0,0 l/m² 1,7 km/h (1 Bft) W-SW 0,00 h 0 W/m² 11,4 °C 13,9 °C 3,1 km/h (1 Bft)
05.10.2023 23:00 24,9 °C 13,6 °C 52 % 86 % 1025,1 hPa 0,0 l/m² 3,2 km/h (1 Bft) W-SW 0,00 h 0 W/m² 11,3 °C 13,6 °C 4,9 km/h (1 Bft)
06.10.2023 00:00 24,0 °C 13,6 °C 54 % 86 % 1025,4 hPa 0,0 l/m² 1,9 km/h (1 Bft) W-SW 0,00 h 0 W/m² 11,4 °C 13,6 °C 3,8 km/h (1 Bft)
06.10.2023 01:00 23,4 °C 13,6 °C 56 % 86 % 1025,6 hPa 0,0 l/m² 4,6 km/h (1 Bft) SW 0,00 h 0 W/m² 11,3 °C 13,5 °C 7,1 km/h (2 Bft)
06.10.2023 02:00 23,1 °C 13,6 °C 57 % 86 % 1025,6 hPa 0,0 l/m² 7,5 km/h (2 Bft) SW 0,00 h 0 W/m² 11,3 °C 12,9 °C 10,4 km/h (2 Bft)
06.10.2023 03:00 22,8 °C 13,4 °C 57 % 85 % 1025,4 hPa 0,0 l/m² 8,4 km/h (2 Bft) SW 0,00 h 0 W/m² 11,0 °C 12,3 °C 12,3 km/h (2 Bft)
06.10.2023 04:00 22,6 °C 12,4 °C 58 % 87 % 1025,4 hPa 0,0 l/m² 2,9 km/h (1 Bft) W-SW 0,00 h 0 W/m² 10,3 °C 12,4 °C 5,5 km/h (2 Bft)
06.10.2023 05:00 22,7 °C 11,2 °C 58 % 88 % 1025,4 hPa 0,0 l/m² 1,1 km/h (1 Bft) S-SW 0,00 h 0 W/m² 9,4 °C 11,2 °C 2,7 km/h (1 Bft)
06.10.2023 06:00 22,6 °C 10,0 °C 58 % 91 % 1025,5 hPa 0,0 l/m² 1,9 km/h (1 Bft) SW 0,00 h 0 W/m² 8,7 °C 10,0 °C 3,2 km/h (1 Bft)
06.10.2023 07:00 22,4 °C 9,3 °C 57 % 93 % 1025,4 hPa 0,0 l/m² 2,0 km/h (1 Bft) O-SO 0,00 h 12 W/m² 8,2 °C 9,3 °C 3,7 km/h (1 Bft)
06.10.2023 08:00 22,3 °C 10,8 °C 57 % 93 % 1025,3 hPa 0,0 l/m² 3,7 km/h (1 Bft) O-SO 0,88 h 107 W/m² 9,7 °C 10,4 °C 5,9 km/h (2 Bft)
06.10.2023 09:00 22,6 °C 13,7 °C 57 % 87 % 1025,4 hPa 0,0 l/m² 12,4 km/h (2 Bft) S-SW 1,02 h 301 W/m² 11,5 °C 10,8 °C 16,3 km/h (3 Bft)
06.10.2023 10:00 23,0 °C 15,2 °C 56 % 82 % 1025,1 hPa 0,0 l/m² 15,9 km/h (3 Bft) S-SW 1,00 h 340 W/m² 12,0 °C 11,1 °C 20,9 km/h (4 Bft)
06.10.2023 11:00 23,3 °C 16,4 °C 56 % 77 % 1024,8 hPa 0,0 l/m² 18,4 km/h (3 Bft) S-SW 1,00 h 424 W/m² 12,4 °C 12,0 °C 23,6 km/h (4 Bft)
06.10.2023 12:00 23,4 °C 17,0 °C 55 % 74 % 1024,2 hPa 0,0 l/m² 19,4 km/h (3 Bft) SW 1,00 h 441 W/m² 12,3 °C 12,5 °C 25,5 km/h (4 Bft)
06.10.2023 13:00 23,4 °C 17,8 °C 55 % 71 % 1023,6 hPa 0,0 l/m² 19,0 km/h (3 Bft) SW 1,00 h 434 W/m² 12,5 °C 13,7 °C 25,7 km/h (4 Bft)
06.10.2023 14:00 23,4 °C 18,7 °C 55 % 68 % 1022,7 hPa 0,0 l/m² 20,4 km/h (4 Bft) SW 1,00 h 452 W/m² 12,7 °C 14,6 °C 27,0 km/h (4 Bft)
06.10.2023 15:00 23,3 °C 18,7 °C 55 % 68 % 1021,7 hPa 0,0 l/m² 20,0 km/h (4 Bft) SW 1,00 h 310 W/m² 12,6 °C 14,6 °C 26,6 km/h (4 Bft)
06.10.2023 16:00 23,0 °C 18,7 °C 55 % 68 % 1021,2 hPa 0,0 l/m² 17,5 km/h (3 Bft) SW 1,00 h 220 W/m² 12,6 °C 15,2 °C 23,3 km/h (4 Bft)
06.10.2023 17:00 22,7 °C 18,0 °C 55 % 69 % 1020,6 hPa 0,0 l/m² 16,6 km/h (3 Bft) SW 0,58 h 80 W/m² 12,2 °C 14,5 °C 21,9 km/h (4 Bft)
06.10.2023 18:00 22,7 °C 17,3 °C 57 % 70 % 1020,6 hPa 0,0 l/m² 14,2 km/h (3 Bft) SW 0,00 h 17 W/m² 11,8 °C 14,3 °C 19,5 km/h (3 Bft)
06.10.2023 19:00 22,7 °C 16,9 °C 58 % 71 % 1020,4 hPa 0,0 l/m² 14,9 km/h (3 Bft) S-SW 0,00 h 0 W/m² 11,6 °C 13,7 °C 20,3 km/h (4 Bft)
06.10.2023 20:00 22,8 °C 16,7 °C 58 % 70 % 1019,6 hPa 0,0 l/m² 22,2 km/h (4 Bft) SW 0,00 h 0 W/m² 11,3 °C 11,5 °C 30,0 km/h (5 Bft)
06.10.2023 21:00 22,9 °C 16,0 °C 58 % 73 % 1019,7 hPa 0,0 l/m² 15,5 km/h (3 Bft) S-SW 0,00 h 0 W/m² 11,1 °C 12,3 °C 21,1 km/h (4 Bft)
06.10.2023 22:00 22,8 °C 16,2 °C 58 % 73 % 1019,6 hPa 0,0 l/m² 13,5 km/h (3 Bft) SW 0,00 h 0 W/m² 11,4 °C 13,2 °C 18,6 km/h (3 Bft)
06.10.2023 23:00 22,6 °C 16,2 °C 59 % 74 % 1019,6 hPa 0,0 l/m² 14,4 km/h (3 Bft) SW 0,00 h 0 W/m² 11,6 °C 13,0 °C 20,5 km/h (4 Bft)
07.10.2023 00:00 22,5 °C 15,6 °C 59 % 76 % 1019,4 hPa 0,0 l/m² 11,9 km/h (2 Bft) SW 0,00 h 0 W/m² 11,4 °C 13,2 °C 17,0 km/h (3 Bft)
07.10.2023 01:00 22,4 °C 14,8 °C 59 % 79 % 1019,0 hPa 0,0 l/m² 10,5 km/h (2 Bft) SW 0,00 h 0 W/m² 11,1 °C 12,7 °C 16,3 km/h (3 Bft)
07.10.2023 02:00 22,3 °C 15,0 °C 60 % 77 % 1018,6 hPa 0,0 l/m² 17,5 km/h (3 Bft) SW 0,00 h 0 W/m² 11,0 °C 10,5 °C 24,4 km/h (4 Bft)
07.10.2023 03:00 22,3 °C 14,7 °C 60 % 78 % 1018,6 hPa 0,0 l/m² 13,5 km/h (3 Bft) SW 0,00 h 0 W/m² 10,9 °C 11,5 °C 20,5 km/h (4 Bft)
07.10.2023 04:00 22,2 °C 14,3 °C 60 % 80 % 1018,7 hPa 0,0 l/m² 12,6 km/h (2 Bft) SW 0,00 h 0 W/m² 10,9 °C 11,3 °C 19,1 km/h (3 Bft)
07.10.2023 05:00 22,1 °C 13,8 °C 60 % 81 % 1018,5 hPa 0,0 l/m² 14,7 km/h (3 Bft) SW 0,00 h 0 W/m² 10,6 °C 9,9 °C 20,9 km/h (4 Bft)
07.10.2023 06:00 22,1 °C 13,3 °C 60 % 83 % 1018,1 hPa 0,0 l/m² 16,4 km/h (3 Bft) SW 0,00 h 0 W/m² 10,5 °C 8,7 °C 22,2 km/h (4 Bft)
07.10.2023 07:00 22,0 °C 13,8 °C 59 % 81 % 1018,1 hPa 0,0 l/m² 15,2 km/h (3 Bft) SW 0,00 h 11 W/m² 10,6 °C 9,7 °C 21,2 km/h (4 Bft)
07.10.2023 08:00 22,0 °C 14,4 °C 60 % 80 % 1018,3 hPa 0,0 l/m² 19,8 km/h (4 Bft) SW 0,33 h 45 W/m² 11,0 °C 9,1 °C 27,7 km/h (5 Bft)
07.10.2023 09:00 22,2 °C 14,8 °C 61 % 80 % 1018,5 hPa 0,0 l/m² 20,5 km/h (4 Bft) SW 0,85 h 70 W/m² 11,5 °C 9,4 °C 28,1 km/h (5 Bft)
07.10.2023 10:00 22,1 °C 15,5 °C 60 % 81 % 1018,8 hPa 0,0 l/m² 16,0 km/h (3 Bft) SW 1,00 h 111 W/m² 12,3 °C 11,6 °C 23,1 km/h (4 Bft)
07.10.2023 11:00 22,1 °C 15,8 °C 59 % 81 % 1018,4 hPa 0,0 l/m² 18,7 km/h (3 Bft) SW 1,02 h 149 W/m² 12,6 °C 11,2 °C 25,9 km/h (4 Bft)
07.10.2023 12:00 22,1 °C 16,5 °C 61 % 81 % 1017,9 hPa 0,0 l/m² 21,0 km/h (4 Bft) SW 1,00 h 156 W/m² 13,3 °C 11,5 °C 28,9 km/h (5 Bft)
07.10.2023 13:00 22,1 °C 17,1 °C 61 % 81 % 1017,5 hPa 0,0 l/m² 21,2 km/h (4 Bft) SW 1,00 h 166 W/m² 13,8 °C 12,3 °C 28,3 km/h (5 Bft)
07.10.2023 14:00 22,1 °C 18,3 °C 61 % 79 % 1017,3 hPa 0,0 l/m² 20,4 km/h (4 Bft) SW 1,00 h 260 W/m² 14,6 °C 13,9 °C 28,1 km/h (5 Bft)
07.10.2023 15:00 22,1 °C 20,6 °C 60 % 75 % 1017,1 hPa 0,0 l/m² 22,7 km/h (4 Bft) SW 1,00 h 457 W/m² 15,9 °C 16,6 °C 30,2 km/h (5 Bft)
07.10.2023 16:00 22,2 °C 20,5 °C 60 % 74 % 1016,9 hPa 0,0 l/m² 23,0 km/h (4 Bft) W-SW 1,00 h 200 W/m² 15,7 °C 16,5 °C 30,5 km/h (5 Bft)
07.10.2023 17:00 22,1 °C 19,8 °C 60 % 75 % 1016,7 hPa 0,0 l/m² 20,9 km/h (4 Bft) SW 0,53 h 53 W/m² 15,3 °C 15,9 °C 27,7 km/h (5 Bft)
07.10.2023 18:00 22,0 °C 18,9 °C 60 % 77 % 1016,7 hPa 0,0 l/m² 16,2 km/h (3 Bft) SW 0,00 h 22 W/m² 14,8 °C 15,7 °C 22,1 km/h (4 Bft)
07.10.2023 19:00 21,9 °C 18,3 °C 60 % 79 % 1016,9 hPa 0,0 l/m² 13,7 km/h (3 Bft) SW 0,00 h 0 W/m² 14,5 °C 15,7 °C 18,8 km/h (3 Bft)
07.10.2023 20:00 21,8 °C 18,9 °C 60 % 76 % 1016,8 hPa 0,0 l/m² 22,1 km/h (4 Bft) W-SW 0,00 h 0 W/m² 14,6 °C 14,5 °C 29,6 km/h (5 Bft)
07.10.2023 21:00 21,8 °C 19,2 °C 60 % 74 % 1016,5 hPa 0,0 l/m² 25,8 km/h (4 Bft) W-SW 0,00 h 0 W/m² 14,5 °C 14,1 °C 34,2 km/h (5 Bft)
07.10.2023 22:00 21,9 °C 19,2 °C 60 % 74 % 1016,9 hPa 0,0 l/m² 23,1 km/h (4 Bft) SW 0,00 h 0 W/m² 14,5 °C 14,7 °C 30,7 km/h (5 Bft)
07.10.2023 23:00 21,9 °C 18,6 °C 60 % 77 % 1017,0 hPa 0,0 l/m² 18,9 km/h (3 Bft) SW 0,00 h 0 W/m² 14,4 °C 14,7 °C 25,0 km/h (4 Bft)
08.10.2023 00:00 21,8 °C 18,6 °C 60 % 77 % 1016,9 hPa 0,0 l/m² 14,0 km/h (3 Bft) W-SW 0,00 h 0 W/m² 14,4 °C 15,8 °C 19,4 km/h (3 Bft)
08.10.2023 01:00 21,8 °C 18,5 °C 60 % 78 % 1017,2 hPa 0,0 l/m² 5,6 km/h (2 Bft) W-SW 0,00 h 0 W/m² 14,6 °C 18,1 °C 9,4 km/h (2 Bft)
08.10.2023 02:00 21,8 °C 17,8 °C 60 % 81 % 1017,7 hPa 0,0 l/m² 9,4 km/h (2 Bft) W 0,00 h 0 W/m² 14,6 °C 16,4 °C 15,6 km/h (3 Bft)
08.10.2023 03:00 21,7 °C 13,7 °C 60 % 89 % 1019,1 hPa 0,2 l/m² 11,8 km/h (2 Bft) N-NW 0,00 h 0 W/m² 11,9 °C 11,0 °C 19,3 km/h (3 Bft)
08.10.2023 04:00 21,7 °C 12,5 °C 60 % 92 % 1020,6 hPa 0,4 l/m² 8,2 km/h (2 Bft) W-NW 0,00 h 0 W/m² 11,2 °C 11,1 °C 15,9 km/h (3 Bft)
08.10.2023 05:00 21,6 °C 11,8 °C 60 % 92 % 1021,2 hPa 0,0 l/m² 9,5 km/h (2 Bft) N-NW 0,00 h 0 W/m² 10,6 °C 10,0 °C 16,3 km/h (3 Bft)
08.10.2023 06:00 21,6 °C 11,2 °C 60 % 92 % 1022,0 hPa 0,2 l/m² 5,1 km/h (1 Bft) NW 0,00 h 0 W/m² 9,9 °C 10,6 °C 9,4 km/h (2 Bft)
08.10.2023 07:00 21,6 °C 10,6 °C 60 % 93 % 1022,8 hPa 0,0 l/m² 2,8 km/h (1 Bft) W-NW 0,00 h 0 W/m² 9,5 °C 10,5 °C 5,6 km/h (2 Bft)
08.10.2023 08:00 21,6 °C 10,3 °C 61 % 92 % 1023,7 hPa 0,0 l/m² 1,8 km/h (1 Bft) W-NW 0,00 h 10 W/m² 9,0 °C 10,3 °C 4,5 km/h (1 Bft)
08.10.2023 09:00 21,7 °C 10,5 °C 61 % 90 % 1024,8 hPa 0,0 l/m² 1,7 km/h (1 Bft) W-NW 0,00 h 31 W/m² 9,0 °C 10,5 °C 4,0 km/h (1 Bft)
08.10.2023 10:00 24,9 °C 10,9 °C 54 % 88 % 1025,7 hPa 0,2 l/m² 3,6 km/h (1 Bft) W 0,90 h 146 W/m² 9,0 °C 10,9 °C 6,7 km/h (2 Bft)
08.10.2023 11:00 31,2 °C 12,3 °C 42 % 84 % 1026,5 hPa 0,0 l/m² 2,9 km/h (1 Bft) W 1,00 h 211 W/m² 9,7 °C 12,3 °C 5,5 km/h (2 Bft)
08.10.2023 12:00 33,3 °C 13,0 °C 37 % 82 % 1027,3 hPa 0,0 l/m² 2,2 km/h (1 Bft) W-NW 1,00 h 228 W/m² 9,9 °C 13,0 °C 4,3 km/h (1 Bft)
08.10.2023 13:00 31,5 °C 13,6 °C 40 % 80 % 1027,0 hPa 0,0 l/m² 2,5 km/h (1 Bft) S-SW 1,00 h 405 W/m² 10,3 °C 13,6 °C 4,5 km/h (1 Bft)
08.10.2023 14:00 28,9 °C 14,6 °C 44 % 75 % 1026,6 hPa 0,0 l/m² 5,0 km/h (1 Bft) SW 1,00 h 479 W/m² 10,2 °C 14,4 °C 7,9 km/h (2 Bft)
08.10.2023 15:00 27,0 °C 14,6 °C 47 % 74 % 1026,2 hPa 0,0 l/m² 4,9 km/h (1 Bft) W-SW 1,00 h 347 W/m² 10,0 °C 14,2 °C 7,0 km/h (2 Bft)
08.10.2023 16:00 26,0 °C 14,6 °C 49 % 73 % 1025,8 hPa 0,0 l/m² 3,7 km/h (1 Bft) S-SW 1,00 h 244 W/m² 9,8 °C 14,4 °C 5,3 km/h (1 Bft)
08.10.2023 17:00 25,2 °C 13,5 °C 48 % 78 % 1026,0 hPa 0,0 l/m² 5,1 km/h (1 Bft) SW 0,27 h 48 W/m² 9,7 °C 13,5 °C 6,9 km/h (2 Bft)
08.10.2023 18:00 24,8 °C 13,0 °C 50 % 80 % 1026,5 hPa 0,0 l/m² 3,0 km/h (1 Bft) SW 0,00 h 19 W/m² 9,6 °C 13,0 °C 4,4 km/h (1 Bft)
08.10.2023 19:00 24,8 °C 12,2 °C 52 % 83 % 1026,2 hPa 0,0 l/m² 0,0 km/h (0 Bft) SW 0,00 h 0 W/m² 9,4 °C 12,2 °C 0,1 km/h (0 Bft)
08.10.2023 20:00 24,8 °C 11,7 °C 53 % 85 % 1025,5 hPa 0,0 l/m² 2,8 km/h (1 Bft) SW 0,00 h 0 W/m² 9,3 °C 11,7 °C 4,5 km/h (1 Bft)
08.10.2023 21:00 24,7 °C 11,4 °C 54 % 85 % 1025,4 hPa 0,0 l/m² 2,1 km/h (1 Bft) S 0,00 h 0 W/m² 8,9 °C 11,4 °C 3,3 km/h (1 Bft)
08.10.2023 22:00 24,4 °C 11,1 °C 55 % 86 % 1024,7 hPa 0,0 l/m² 0,8 km/h (0 Bft) S 0,00 h 0 W/m² 8,8 °C 11,1 °C 1,4 km/h (1 Bft)
08.10.2023 23:00 24,0 °C 11,0 °C 56 % 86 % 1024,0 hPa 0,0 l/m² 1,1 km/h (1 Bft) S 0,00 h 0 W/m² 8,8 °C 11,0 °C 2,2 km/h (1 Bft)
Min-Datum _ 05.10.23 06.10.23 08.10.23 02.10.23 03.10.23 - 08.10.23 - - - 06.10.23 04.10.23 08.10.23
_ Min-Zeit 11:00 07:34 12:21 16:06 11:54 - 23:01 - - - 07:32 06:34 23:01
Minimum _ 21,3 °C 9,0 °C 35 % 57 % 1010,0 hPa - 0,0 km/h (0 Bft) - - - 7,9 °C 4,9 °C 0,0 km/h (0 Bft)
Max-Datum _ 08.10.23 02.10.23 03.10.23 03.10.23 08.10.23 03.10.23 03.10.23 - 08.10.23 04.10.23 02.10.23 02.10.23 03.10.23
_ Max-Zeit 12:05 16:08 19:27 07:00 12:57 17:16 17:16 - 11:04 12:56 14:58 15:58 17:16
Maximum _ 33,7 °C 25,9 °C 65 % 95 % 1027,6 hPa 6,6 l/m² 47,1 km/h
SW (6 Bft)
- 0,05 h 705 W/m² 18,2 °C 25,6 °C 54,7 km/h
SW (7 Bft)
Durchschnitt _ 22,8 °C 15,0 °C 58 % 82 % 1021,1 hPa #10,8 l/m² 10,5 km/h (2 Bft) SW #60:28 h 103 W/m² 11,8 °C 12,9 °C 14,8 km/h (3 Bft)
© 2009 Mathias Hoßbach